createdAt,value
2017-12-26T00:00:17.855Z,27.40
2017-12-26T00:01:17.836Z,27.10
2017-12-26T00:02:17.819Z,27.20
2017-12-26T00:03:17.809Z,29.90
2017-12-26T00:04:17.788Z,28.20
2017-12-26T00:05:17.767Z,26.80
2017-12-26T00:06:17.748Z,31.70
2017-12-26T00:07:17.733Z,30.70
2017-12-26T00:08:17.714Z,31.60
2017-12-26T00:09:17.751Z,30.80
2017-12-26T00:10:17.681Z,29.40
2017-12-26T00:11:17.669Z,29.60
2017-12-26T00:12:17.652Z,30.90
2017-12-26T00:13:17.626Z,28.60
2017-12-26T00:14:17.609Z,30.80
2017-12-26T00:15:17.591Z,32.00
2017-12-26T00:16:17.579Z,30.30
2017-12-26T00:17:17.562Z,30.00
2017-12-26T00:18:17.539Z,30.50
2017-12-26T00:19:17.521Z,27.00
2017-12-26T00:20:17.502Z,28.30
2017-12-26T00:21:17.487Z,29.50
2017-12-26T00:22:17.468Z,29.10
2017-12-26T00:23:17.452Z,27.10
2017-12-26T00:24:17.434Z,30.50
2017-12-26T00:25:17.417Z,30.40
2017-12-26T00:26:17.403Z,32.00
2017-12-26T00:27:17.381Z,29.10
2017-12-26T00:28:17.363Z,26.80
2017-12-26T00:29:17.346Z,29.30
2017-12-26T00:30:17.331Z,29.90
2017-12-26T00:31:17.311Z,28.10
2017-12-26T00:32:17.299Z,26.90
2017-12-26T00:33:17.277Z,30.40
2017-12-26T00:34:17.260Z,30.30
2017-12-26T00:35:17.246Z,28.20
2017-12-26T00:36:17.230Z,28.70
2017-12-26T00:37:17.207Z,27.90
2017-12-26T00:38:17.188Z,28.20
2017-12-26T00:39:17.174Z,28.00
2017-12-26T00:40:17.152Z,28.90
2017-12-26T00:41:17.136Z,28.70
2017-12-26T00:42:17.118Z,27.40
2017-12-26T00:43:17.101Z,26.10
2017-12-26T00:44:17.089Z,28.80
2017-12-26T00:45:17.068Z,27.90
2017-12-26T00:46:17.056Z,28.50
2017-12-26T00:47:17.037Z,28.20
2017-12-26T00:48:17.018Z,24.60
2017-12-26T00:49:16.997Z,26.60
2017-12-26T00:50:16.979Z,26.60
2017-12-26T00:51:16.962Z,25.30
2017-12-26T00:52:16.948Z,23.20
2017-12-26T00:53:16.926Z,23.70
2017-12-26T00:54:16.910Z,22.70
2017-12-26T00:55:16.894Z,22.00
2017-12-26T00:56:16.878Z,21.70
2017-12-26T00:57:16.858Z,21.60
2017-12-26T00:58:16.840Z,21.90
2017-12-26T00:59:16.828Z,20.50
2017-12-26T01:00:16.803Z,19.20
2017-12-26T01:01:16.791Z,19.20
2017-12-26T01:02:16.771Z,18.70
2017-12-26T01:03:16.752Z,20.40
2017-12-26T01:04:16.735Z,19.50
2017-12-26T01:05:16.722Z,19.20
2017-12-26T01:06:16.705Z,20.60
2017-12-26T01:07:16.678Z,19.90
2017-12-26T01:08:16.662Z,22.50
2017-12-26T01:09:16.649Z,23.80
2017-12-26T01:10:16.633Z,24.50
2017-12-26T01:11:16.616Z,24.60
2017-12-26T01:12:16.597Z,26.50
2017-12-26T01:13:16.575Z,26.00
2017-12-26T01:14:16.554Z,25.80
2017-12-26T01:15:16.540Z,26.20
2017-12-26T01:16:16.526Z,24.80
2017-12-26T01:17:16.503Z,25.30
2017-12-26T01:18:16.480Z,26.10
2017-12-26T01:19:16.461Z,25.10
2017-12-26T01:20:16.443Z,27.20
2017-12-26T01:21:16.430Z,24.80
2017-12-26T01:22:16.410Z,26.50
2017-12-26T01:23:16.390Z,25.40
2017-12-26T01:24:16.375Z,24.90
2017-12-26T01:25:16.353Z,26.50
2017-12-26T01:26:16.340Z,27.30
2017-12-26T01:27:16.321Z,25.30
2017-12-26T01:28:16.298Z,27.10
2017-12-26T01:29:16.279Z,25.40
2017-12-26T01:30:16.261Z,27.00
2017-12-26T01:31:16.249Z,27.10
2017-12-26T01:32:16.228Z,29.40
2017-12-26T01:33:16.212Z,28.30
2017-12-26T01:34:16.187Z,29.00
2017-12-26T01:35:16.174Z,30.60
2017-12-26T01:36:16.151Z,29.30
2017-12-26T01:37:16.132Z,25.80
2017-12-26T01:38:16.114Z,28.10
2017-12-26T01:39:16.102Z,28.30
2017-12-26T01:40:16.085Z,27.70
2017-12-26T01:41:16.060Z,26.80
2017-12-26T01:42:16.043Z,27.50
2017-12-26T01:43:16.029Z,29.90
2017-12-26T01:44:16.006Z,27.60
2017-12-26T01:45:15.988Z,29.80
2017-12-26T01:46:15.969Z,30.20
2017-12-26T01:47:15.957Z,28.70
2017-12-26T01:48:15.933Z,28.00
2017-12-26T01:49:15.915Z,27.50
2017-12-26T01:50:15.895Z,29.00
2017-12-26T01:51:15.878Z,29.10
2017-12-26T01:52:15.864Z,28.30
2017-12-26T01:53:15.841Z,27.80
2017-12-26T01:54:15.824Z,26.60
2017-12-26T01:55:15.804Z,28.60
2017-12-26T01:56:15.785Z,28.70
2017-12-26T01:57:15.775Z,27.80
2017-12-26T01:58:15.752Z,27.30
2017-12-26T01:59:15.730Z,24.50
2017-12-26T02:00:15.718Z,26.50
2017-12-26T02:01:15.699Z,26.50
2017-12-26T02:02:15.681Z,25.50
2017-12-26T02:03:15.660Z,23.50
2017-12-26T02:04:15.644Z,24.00
2017-12-26T02:05:15.628Z,23.90
2017-12-26T02:06:15.603Z,25.50
2017-12-26T02:07:15.596Z,25.10
2017-12-26T02:08:15.567Z,23.20
2017-12-26T02:09:15.552Z,25.30
2017-12-26T02:10:15.535Z,25.60
2017-12-26T02:11:15.512Z,25.10
2017-12-26T02:12:15.499Z,23.80
2017-12-26T02:13:15.477Z,21.10
2017-12-26T02:14:15.459Z,23.80
2017-12-26T02:15:15.438Z,22.60
2017-12-26T02:16:15.422Z,21.10
2017-12-26T02:17:15.409Z,24.50
2017-12-26T02:18:15.388Z,20.80
2017-12-26T02:19:15.372Z,22.30
2017-12-26T02:20:15.347Z,21.90
2017-12-26T02:21:15.330Z,23.00
2017-12-26T02:22:15.311Z,21.60
2017-12-26T02:23:15.294Z,24.10
2017-12-26T02:24:15.276Z,22.80
2017-12-26T02:25:15.260Z,22.50
2017-12-26T02:26:15.239Z,23.70
2017-12-26T02:27:15.220Z,22.50
2017-12-26T02:28:15.204Z,22.30
2017-12-26T02:29:15.182Z,20.90
2017-12-26T02:30:15.166Z,23.80
2017-12-26T02:31:15.147Z,22.20
2017-12-26T02:32:15.129Z,21.20
2017-12-26T02:33:15.111Z,21.40
2017-12-26T02:34:15.093Z,21.60
2017-12-26T02:35:15.076Z,21.80
2017-12-26T02:36:15.060Z,21.50
2017-12-26T02:37:15.044Z,22.70
2017-12-26T02:38:15.018Z,26.20
2017-12-26T02:39:15.000Z,22.40
2017-12-26T02:40:14.979Z,23.40
2017-12-26T02:41:14.963Z,24.30
2017-12-26T02:42:14.947Z,23.80
2017-12-26T02:43:14.929Z,24.60
2017-12-26T02:44:14.907Z,23.10
2017-12-26T02:45:14.891Z,24.50
2017-12-26T02:46:14.873Z,26.00
2017-12-26T02:47:14.852Z,27.10
2017-12-26T02:48:14.835Z,27.20
2017-12-26T02:49:14.816Z,26.30
2017-12-26T02:50:14.796Z,27.20
2017-12-26T02:51:14.782Z,27.10
2017-12-26T02:52:14.765Z,29.10
2017-12-26T02:53:14.747Z,28.20
2017-12-26T02:54:14.723Z,29.30
2017-12-26T02:55:14.711Z,28.10
2017-12-26T02:56:14.689Z,28.80
2017-12-26T02:57:14.671Z,29.40
2017-12-26T02:58:14.652Z,32.30
2017-12-26T02:59:14.635Z,29.10
2017-12-26T03:00:14.617Z,30.90
2017-12-26T03:01:14.604Z,30.70
2017-12-26T03:02:14.580Z,31.90
2017-12-26T03:03:14.561Z,31.60
2017-12-26T03:04:14.550Z,32.80
2017-12-26T03:05:14.524Z,32.50
2017-12-26T03:06:14.506Z,32.50
2017-12-26T03:07:14.490Z,30.70
2017-12-26T03:08:14.468Z,31.60
2017-12-26T03:09:14.452Z,35.30
2017-12-26T03:10:14.433Z,34.60
2017-12-26T03:11:14.416Z,35.50
2017-12-26T03:12:14.397Z,32.60
2017-12-26T03:13:14.376Z,32.90
2017-12-26T03:14:14.365Z,34.20
2017-12-26T03:15:14.349Z,42.50
2017-12-26T03:16:14.323Z,38.50
2017-12-26T03:17:14.305Z,32.20
2017-12-26T03:18:14.294Z,37.90
2017-12-26T03:19:14.271Z,34.80
2017-12-26T03:20:14.252Z,37.00
2017-12-26T03:21:14.235Z,35.40
2017-12-26T03:22:14.213Z,37.60
2017-12-26T03:23:14.195Z,36.70
2017-12-26T03:24:14.178Z,35.90
2017-12-26T03:25:14.164Z,34.90
2017-12-26T03:26:14.141Z,35.90
2017-12-26T03:27:14.125Z,34.20
2017-12-26T03:28:14.105Z,37.10
2017-12-26T03:29:14.087Z,36.50
2017-12-26T03:30:14.072Z,35.70
2017-12-26T03:31:14.053Z,40.00
2017-12-26T03:32:14.037Z,37.70
2017-12-26T03:33:14.017Z,35.60
2017-12-26T03:34:13.996Z,34.70
2017-12-26T03:35:13.979Z,38.50
2017-12-26T03:36:13.960Z,40.40
2017-12-26T03:37:13.942Z,37.00
2017-12-26T03:38:13.923Z,39.00
2017-12-26T03:39:13.912Z,39.00
2017-12-26T03:40:13.888Z,38.30
2017-12-26T03:41:13.869Z,41.30
2017-12-26T03:42:13.852Z,43.40
2017-12-26T03:43:13.839Z,38.90
2017-12-26T03:44:13.814Z,37.40
2017-12-26T03:45:13.798Z,39.30
2017-12-26T03:46:13.780Z,38.80
2017-12-26T03:47:13.762Z,39.30
2017-12-26T03:48:13.743Z,38.70
2017-12-26T03:49:13.725Z,36.20
2017-12-26T03:50:13.716Z,37.30
2017-12-26T03:51:13.689Z,37.90
2017-12-26T03:52:13.678Z,36.80
2017-12-26T03:53:13.662Z,38.60
2017-12-26T03:54:13.638Z,36.50
2017-12-26T03:55:13.618Z,39.10
2017-12-26T03:56:13.600Z,38.60
2017-12-26T03:57:13.582Z,39.10
2017-12-26T03:58:13.563Z,40.70
2017-12-26T03:59:13.546Z,39.40
2017-12-26T04:00:13.535Z,39.80
2017-12-26T04:01:13.509Z,39.30
2017-12-26T04:02:13.491Z,35.50
2017-12-26T04:03:13.475Z,38.70
2017-12-26T04:04:13.459Z,40.10
2017-12-26T04:05:13.439Z,37.10
2017-12-26T04:06:13.422Z,40.40
2017-12-26T04:07:13.401Z,40.50
2017-12-26T04:08:13.383Z,38.70
2017-12-26T04:09:13.373Z,38.30
2017-12-26T04:10:13.347Z,39.90
2017-12-26T04:11:13.336Z,36.70
2017-12-26T04:12:13.311Z,38.70
2017-12-26T04:13:13.294Z,37.20
2017-12-26T04:14:13.275Z,36.70
2017-12-26T04:15:13.259Z,34.50
2017-12-26T04:16:13.240Z,34.70
2017-12-26T04:17:13.222Z,34.10
2017-12-26T04:18:13.204Z,36.50
2017-12-26T04:19:13.187Z,34.80
2017-12-26T04:20:13.168Z,36.20
2017-12-26T04:21:13.149Z,35.00
2017-12-26T04:22:13.133Z,34.00
2017-12-26T04:23:13.121Z,33.50
2017-12-26T04:24:13.102Z,38.10
2017-12-26T04:25:13.078Z,37.10
2017-12-26T04:26:13.060Z,34.20
2017-12-26T04:27:13.044Z,34.20
2017-12-26T04:28:13.026Z,37.70
2017-12-26T04:29:13.010Z,35.80
2017-12-26T04:30:12.994Z,35.40
2017-12-26T04:31:12.975Z,32.80
2017-12-26T04:32:12.955Z,34.10
2017-12-26T04:33:12.936Z,33.70
2017-12-26T04:34:12.924Z,32.20
2017-12-26T04:35:12.901Z,30.60
2017-12-26T04:36:12.885Z,31.80
2017-12-26T04:37:12.864Z,34.30
2017-12-26T04:38:12.848Z,34.40
2017-12-26T04:39:12.831Z,34.70
2017-12-26T04:40:12.811Z,29.40
2017-12-26T04:41:12.794Z,28.30
2017-12-26T04:42:12.780Z,29.30
2017-12-26T04:43:12.759Z,30.60
2017-12-26T04:44:12.741Z,33.30
2017-12-26T04:45:12.728Z,30.20
2017-12-26T04:46:12.710Z,29.70
2017-12-26T04:47:12.688Z,28.90
2017-12-26T04:48:12.672Z,27.40
2017-12-26T04:49:12.652Z,30.20
2017-12-26T04:50:12.635Z,28.40
2017-12-26T04:51:12.614Z,26.10
2017-12-26T04:52:12.601Z,27.60
2017-12-26T04:53:12.580Z,24.80
2017-12-26T04:54:12.568Z,26.80
2017-12-26T04:55:12.543Z,23.40
2017-12-26T04:56:12.524Z,24.40
2017-12-26T04:57:12.515Z,25.90
2017-12-26T04:58:12.491Z,27.90
2017-12-26T04:59:12.474Z,25.20
2017-12-26T05:00:12.453Z,22.20
2017-12-26T05:01:12.438Z,24.70
2017-12-26T05:02:12.425Z,24.20
2017-12-26T05:03:12.405Z,21.90
2017-12-26T05:04:12.387Z,22.50
2017-12-26T05:05:12.368Z,21.40
2017-12-26T05:06:12.348Z,22.20
2017-12-26T05:07:12.329Z,21.60
2017-12-26T05:08:12.310Z,21.00
2017-12-26T05:09:12.291Z,24.50
2017-12-26T05:10:12.277Z,21.30
2017-12-26T05:11:12.256Z,20.70
2017-12-26T05:12:12.242Z,21.40
2017-12-26T05:13:12.241Z,22.00
2017-12-26T05:14:12.209Z,22.90
2017-12-26T05:15:12.192Z,23.00
2017-12-26T05:16:12.167Z,23.70
2017-12-26T05:17:12.149Z,23.40
2017-12-26T05:18:12.132Z,23.80
2017-12-26T05:19:12.113Z,24.00
2017-12-26T05:20:12.097Z,21.90
2017-12-26T05:21:12.078Z,22.60
2017-12-26T05:22:12.058Z,21.70
2017-12-26T05:23:12.040Z,21.40
2017-12-26T05:24:12.026Z,20.30
2017-12-26T05:25:12.005Z,23.00
2017-12-26T05:26:11.987Z,23.50
2017-12-26T05:27:12.021Z,25.80
2017-12-26T05:28:11.948Z,23.90
2017-12-26T05:29:11.937Z,22.10
2017-12-26T05:30:11.920Z,25.40
2017-12-26T05:31:11.900Z,27.20
2017-12-26T05:32:11.878Z,25.90
2017-12-26T05:33:11.864Z,26.20
2017-12-26T05:34:11.846Z,25.20
2017-12-26T05:35:11.823Z,25.80
2017-12-26T05:36:11.813Z,23.70
2017-12-26T05:37:11.787Z,26.10
2017-12-26T05:38:11.768Z,26.90
2017-12-26T05:39:11.748Z,25.60
2017-12-26T05:40:11.733Z,24.70
2017-12-26T05:41:11.713Z,27.50
2017-12-26T05:42:11.696Z,26.50
2017-12-26T05:43:11.677Z,24.20
2017-12-26T05:44:11.666Z,29.40
2017-12-26T05:45:11.641Z,28.40
2017-12-26T05:46:11.621Z,33.80
2017-12-26T05:47:11.604Z,32.60
2017-12-26T05:48:11.588Z,32.80
2017-12-26T05:49:11.571Z,34.70
2017-12-26T05:50:11.548Z,33.10
2017-12-26T05:51:11.534Z,30.30
2017-12-26T05:52:11.509Z,37.80
2017-12-26T05:53:11.494Z,37.00
2017-12-26T05:54:11.480Z,44.30
2017-12-26T05:55:11.463Z,53.90
2017-12-26T05:56:11.437Z,63.50
2017-12-26T05:57:11.425Z,53.90
2017-12-26T05:58:11.405Z,56.90
2017-12-26T05:59:11.388Z,45.80
2017-12-26T06:00:11.362Z,55.10
2017-12-26T06:01:11.344Z,48.10
2017-12-26T06:02:11.329Z,47.20
2017-12-26T06:03:11.309Z,39.50
2017-12-26T06:04:11.295Z,35.40
2017-12-26T06:05:11.275Z,33.70
2017-12-26T06:06:11.261Z,32.10
2017-12-26T06:07:11.240Z,28.00
2017-12-26T06:08:11.217Z,28.50
2017-12-26T06:09:11.205Z,27.00
2017-12-26T06:10:11.186Z,23.20
2017-12-26T06:11:11.166Z,22.40
2017-12-26T06:12:11.145Z,28.70
2017-12-26T06:13:11.127Z,26.70
2017-12-26T06:14:11.112Z,26.30
2017-12-26T06:15:11.088Z,25.30
2017-12-26T06:16:11.069Z,26.40
2017-12-26T06:17:11.052Z,26.80
2017-12-26T06:18:11.034Z,27.40
2017-12-26T06:19:11.019Z,27.80
2017-12-26T06:20:11.000Z,27.60
2017-12-26T06:21:10.979Z,28.60
2017-12-26T06:22:10.960Z,27.20
2017-12-26T06:23:10.944Z,31.80
2017-12-26T06:24:10.921Z,29.90
2017-12-26T06:25:10.904Z,31.80
2017-12-26T06:26:10.891Z,31.10
2017-12-26T06:27:10.873Z,32.20
2017-12-26T06:28:10.855Z,33.60
2017-12-26T06:29:10.832Z,33.00
2017-12-26T06:30:10.814Z,31.00
2017-12-26T06:31:10.793Z,34.00
2017-12-26T06:32:10.779Z,37.70
2017-12-26T06:33:10.757Z,36.50
2017-12-26T06:34:10.737Z,37.10
2017-12-26T06:35:10.718Z,34.50
2017-12-26T06:36:10.702Z,35.80
2017-12-26T06:37:10.688Z,36.30
2017-12-26T06:38:10.664Z,38.10
2017-12-26T06:39:10.647Z,39.70
2017-12-26T06:40:10.627Z,38.40
2017-12-26T06:41:10.612Z,36.80
2017-12-26T06:42:10.589Z,34.50
2017-12-26T06:43:10.578Z,34.30
2017-12-26T06:44:10.555Z,39.40
2017-12-26T06:45:10.543Z,32.40
2017-12-26T06:46:10.519Z,39.30
2017-12-26T06:47:10.498Z,37.70
2017-12-26T06:48:10.479Z,35.10
2017-12-26T06:49:10.464Z,39.00
2017-12-26T06:50:10.453Z,33.50
2017-12-26T06:51:10.432Z,37.00
2017-12-26T06:52:10.407Z,39.30
2017-12-26T06:53:10.437Z,34.20
2017-12-26T06:54:10.371Z,35.80
2017-12-26T06:55:10.351Z,36.40
2017-12-26T06:56:10.334Z,36.30
2017-12-26T06:57:10.320Z,31.80
2017-12-26T06:58:10.298Z,31.50
2017-12-26T06:59:10.280Z,30.40
2017-12-26T07:00:10.264Z,23.20
2017-12-26T07:01:10.241Z,23.00
2017-12-26T07:02:10.223Z,23.10
2017-12-26T07:03:10.211Z,22.00
2017-12-26T07:04:10.194Z,22.80
2017-12-26T07:05:10.168Z,23.90
2017-12-26T07:06:10.155Z,23.30
2017-12-26T07:07:10.131Z,23.00
2017-12-26T07:08:10.112Z,22.10
2017-12-26T07:09:10.097Z,20.60
2017-12-26T07:10:10.078Z,21.60
2017-12-26T07:11:10.058Z,22.60
2017-12-26T07:12:10.038Z,21.10
2017-12-26T07:13:10.020Z,20.50
2017-12-26T07:14:09.999Z,20.10
2017-12-26T07:15:09.983Z,20.20
2017-12-26T07:16:09.963Z,17.60
2017-12-26T07:17:09.947Z,18.40
2017-12-26T07:18:09.928Z,15.80
2017-12-26T07:19:09.908Z,16.30
2017-12-26T07:20:09.895Z,18.20
2017-12-26T07:21:09.878Z,17.40
2017-12-26T07:22:09.852Z,19.80
2017-12-26T07:23:09.843Z,18.60
2017-12-26T07:24:09.814Z,17.40
2017-12-26T07:25:09.795Z,17.40
2017-12-26T07:26:09.784Z,16.60
2017-12-26T07:27:09.762Z,19.90
2017-12-26T07:28:09.747Z,17.10
2017-12-26T07:29:09.722Z,15.70
2017-12-26T07:30:09.703Z,15.70
2017-12-26T07:31:09.731Z,17.50
2017-12-26T07:32:09.673Z,15.90
2017-12-26T07:33:09.648Z,17.20
2017-12-26T07:34:09.628Z,16.70
2017-12-26T07:35:09.610Z,16.70
2017-12-26T07:36:09.599Z,19.00
2017-12-26T07:37:09.577Z,18.40
2017-12-26T07:38:09.555Z,18.30
2017-12-26T07:39:09.539Z,17.80
2017-12-26T07:40:09.518Z,18.80
2017-12-26T07:41:09.500Z,19.60
2017-12-26T07:42:09.484Z,18.70
2017-12-26T07:43:09.468Z,20.70
2017-12-26T07:44:09.443Z,20.00
2017-12-26T07:45:09.432Z,20.30
2017-12-26T07:46:09.407Z,21.40
2017-12-26T07:47:09.387Z,20.60
2017-12-26T07:48:09.368Z,21.10
2017-12-26T07:49:09.353Z,21.40
2017-12-26T07:50:09.332Z,19.80
2017-12-26T07:51:09.320Z,18.60
2017-12-26T07:52:09.295Z,20.00
2017-12-26T07:53:09.275Z,18.90
2017-12-26T07:54:09.256Z,20.10
2017-12-26T07:55:09.239Z,20.10
2017-12-26T07:56:09.221Z,20.20
2017-12-26T07:57:09.202Z,19.60
2017-12-26T07:58:09.184Z,20.10
2017-12-26T07:59:09.172Z,17.70
2017-12-26T08:00:09.150Z,20.00
2017-12-26T08:01:09.128Z,17.70
2017-12-26T08:02:09.114Z,19.00
2017-12-26T08:03:09.093Z,19.90
2017-12-26T08:04:09.073Z,19.00
2017-12-26T08:05:09.054Z,17.80
2017-12-26T08:06:09.035Z,20.20
2017-12-26T08:07:09.016Z,19.20
2017-12-26T08:08:08.997Z,18.70
2017-12-26T08:09:08.985Z,19.30
2017-12-26T08:10:08.961Z,19.10
2017-12-26T08:11:08.944Z,17.70
2017-12-26T08:12:08.925Z,18.40
2017-12-26T08:13:08.907Z,20.10
2017-12-26T08:14:08.893Z,19.20
2017-12-26T08:15:08.876Z,19.00
2017-12-26T08:16:08.854Z,19.10
2017-12-26T08:17:08.837Z,19.80
2017-12-26T08:18:08.817Z,19.00
2017-12-26T08:19:08.797Z,19.20
2017-12-26T08:20:08.787Z,20.00
2017-12-26T08:21:08.766Z,21.60
2017-12-26T08:22:08.742Z,19.50
2017-12-26T08:23:08.735Z,20.60
2017-12-26T08:24:08.707Z,17.80
2017-12-26T08:25:08.691Z,18.80
2017-12-26T08:26:08.674Z,18.60
2017-12-26T08:27:08.652Z,17.30
2017-12-26T08:28:08.634Z,18.70
2017-12-26T08:29:08.615Z,16.60
2017-12-26T08:30:08.605Z,18.10
2017-12-26T08:31:08.581Z,18.60
2017-12-26T08:32:08.563Z,16.80
2017-12-26T08:33:08.546Z,16.80
2017-12-26T08:34:08.528Z,18.30
2017-12-26T08:35:08.511Z,17.90
2017-12-26T08:36:08.492Z,18.90
2017-12-26T08:37:08.476Z,16.60
2017-12-26T08:38:08.454Z,18.80
2017-12-26T08:39:08.440Z,16.60
2017-12-26T08:40:08.422Z,18.10
2017-12-26T08:41:08.407Z,16.50
2017-12-26T08:42:08.384Z,15.30
2017-12-26T08:43:08.366Z,16.40
2017-12-26T08:44:08.352Z,15.30
2017-12-26T08:45:08.329Z,17.00
2017-12-26T08:46:08.314Z,16.00
2017-12-26T08:47:08.296Z,17.80
2017-12-26T08:48:08.276Z,19.20
2017-12-26T08:49:08.266Z,16.50
2017-12-26T08:50:08.242Z,16.10
2017-12-26T08:51:08.224Z,16.50
2017-12-26T08:52:08.211Z,17.30
2017-12-26T08:53:08.198Z,17.60
2017-12-26T08:54:08.176Z,17.10
2017-12-26T08:55:08.159Z,15.50
2017-12-26T08:56:08.134Z,17.40
2017-12-26T08:57:08.122Z,15.00
2017-12-26T08:58:08.099Z,16.90
2017-12-26T08:59:08.083Z,15.50
2017-12-26T09:00:08.069Z,14.60
2017-12-26T09:01:08.044Z,15.20
2017-12-26T09:02:08.035Z,16.50
2017-12-26T09:03:08.013Z,16.80
2017-12-26T09:04:07.993Z,15.90
2017-12-26T09:05:07.977Z,17.30
2017-12-26T09:06:07.960Z,16.60
2017-12-26T09:07:07.948Z,16.40
2017-12-26T09:08:07.923Z,16.30
2017-12-26T09:09:07.908Z,16.40
2017-12-26T09:10:07.890Z,16.20
2017-12-26T09:11:07.874Z,17.60
2017-12-26T09:12:07.861Z,15.90
2017-12-26T09:13:07.842Z,14.90
2017-12-26T09:14:07.825Z,15.40
2017-12-26T09:15:07.803Z,16.80
2017-12-26T09:16:07.786Z,16.40
2017-12-26T09:17:07.773Z,16.80
2017-12-26T09:18:07.756Z,16.10
2017-12-26T09:19:07.734Z,15.10
2017-12-26T09:20:07.727Z,17.10
2017-12-26T09:21:07.699Z,15.10
2017-12-26T09:22:07.685Z,14.40
2017-12-26T09:23:07.670Z,17.00
2017-12-26T09:24:07.653Z,16.40
2017-12-26T09:25:07.631Z,16.00
2017-12-26T09:26:07.633Z,14.50
2017-12-26T09:27:07.599Z,14.40
2017-12-26T09:28:07.580Z,15.80
2017-12-26T09:29:07.562Z,13.70
2017-12-26T09:30:07.547Z,15.10
2017-12-26T09:31:07.534Z,14.60
2017-12-26T09:32:07.517Z,15.10
2017-12-26T09:33:07.495Z,14.10
2017-12-26T09:34:07.479Z,14.40
2017-12-26T09:35:07.465Z,15.60
2017-12-26T09:36:07.449Z,15.70
2017-12-26T09:37:07.427Z,15.30
2017-12-26T09:38:07.416Z,16.60
2017-12-26T09:39:07.395Z,14.60
2017-12-26T09:40:07.381Z,15.70
2017-12-26T09:41:07.357Z,15.20
2017-12-26T09:42:07.347Z,15.80
2017-12-26T09:43:07.330Z,16.80
2017-12-26T09:44:07.308Z,15.20
2017-12-26T09:45:07.298Z,15.20
2017-12-26T09:46:07.276Z,16.00
2017-12-26T09:47:07.264Z,13.90
2017-12-26T09:48:07.243Z,14.40
2017-12-26T09:49:07.224Z,12.70
2017-12-26T09:50:07.215Z,14.30
2017-12-26T09:51:07.196Z,13.60
2017-12-26T09:52:07.181Z,16.50
2017-12-26T09:53:07.158Z,14.40
2017-12-26T09:54:07.141Z,15.20
2017-12-26T09:55:07.131Z,14.10
2017-12-26T09:56:07.106Z,15.70
2017-12-26T09:57:07.090Z,14.60
2017-12-26T09:58:07.075Z,14.40
2017-12-26T09:59:07.057Z,14.40
2017-12-26T10:00:07.040Z,14.80
2017-12-26T10:01:07.023Z,13.00
2017-12-26T10:02:07.006Z,14.40
2017-12-26T10:03:06.993Z,14.90
2017-12-26T10:04:06.972Z,13.60
2017-12-26T10:05:06.957Z,14.10
2017-12-26T10:06:06.939Z,14.80
2017-12-26T10:07:06.923Z,15.50
2017-12-26T10:08:06.908Z,15.00
2017-12-26T10:09:06.896Z,15.40
2017-12-26T10:10:06.873Z,14.70
2017-12-26T10:11:06.856Z,15.70
2017-12-26T10:12:06.871Z,13.70
2017-12-26T10:13:06.825Z,15.90
2017-12-26T10:14:06.805Z,15.30
2017-12-26T10:15:06.790Z,14.60
2017-12-26T10:16:06.785Z,14.20
2017-12-26T10:17:06.758Z,14.50
2017-12-26T10:18:06.739Z,15.80
2017-12-26T10:19:06.724Z,15.70
2017-12-26T10:20:06.707Z,15.00
2017-12-26T10:21:06.691Z,14.30
2017-12-26T10:22:06.673Z,14.80
2017-12-26T10:23:06.658Z,14.20
2017-12-26T10:24:06.641Z,14.40
2017-12-26T10:25:06.626Z,16.30
2017-12-26T10:26:06.613Z,15.90
2017-12-26T10:27:06.594Z,14.30
2017-12-26T10:28:06.585Z,14.80
2017-12-26T10:29:06.567Z,17.70
2017-12-26T10:30:06.545Z,13.10
2017-12-26T10:31:06.530Z,14.80
2017-12-26T10:32:06.512Z,14.60
2017-12-26T10:33:06.500Z,14.10
2017-12-26T10:34:06.486Z,12.70
2017-12-26T10:35:06.463Z,14.00
2017-12-26T10:36:06.445Z,13.10
2017-12-26T10:37:06.437Z,14.20
2017-12-26T10:38:06.414Z,13.90
2017-12-26T10:39:06.397Z,13.70
2017-12-26T10:40:06.392Z,14.00
2017-12-26T10:41:06.366Z,13.80
2017-12-26T10:42:06.383Z,14.90
2017-12-26T10:43:06.333Z,12.80
2017-12-26T10:44:06.317Z,14.30
2017-12-26T10:45:06.299Z,14.10
2017-12-26T10:46:06.286Z,14.90
2017-12-26T10:47:06.272Z,14.10
2017-12-26T10:48:06.258Z,13.80
2017-12-26T10:49:06.241Z,13.10
2017-12-26T10:50:06.232Z,14.50
2017-12-26T10:51:06.210Z,12.70
2017-12-26T10:52:06.185Z,13.30
2017-12-26T10:53:06.171Z,13.40
2017-12-26T10:54:06.158Z,14.30
2017-12-26T10:55:06.141Z,13.90
2017-12-26T10:56:06.123Z,13.60
2017-12-26T10:57:06.108Z,13.20
2017-12-26T10:58:06.091Z,13.30
2017-12-26T10:59:06.076Z,13.70
2017-12-26T11:00:06.065Z,12.50
2017-12-26T11:01:06.044Z,12.80
2017-12-26T11:02:06.034Z,13.60
2017-12-26T11:03:06.012Z,13.00
2017-12-26T11:04:05.999Z,14.10
2017-12-26T11:05:05.985Z,12.20
2017-12-26T11:06:05.965Z,13.10
2017-12-26T11:07:05.956Z,10.30
2017-12-26T11:08:05.940Z,12.20
2017-12-26T11:09:05.922Z,12.20
2017-12-26T11:10:05.904Z,14.80
2017-12-26T11:11:05.892Z,12.40
2017-12-26T11:12:05.878Z,10.70
2017-12-26T11:13:05.860Z,11.10
2017-12-26T11:14:05.843Z,11.40
2017-12-26T11:15:05.826Z,12.40
2017-12-26T11:16:05.810Z,11.50
2017-12-26T11:17:05.798Z,10.60
2017-12-26T11:18:05.781Z,11.30
2017-12-26T11:19:05.765Z,11.50
2017-12-26T11:20:05.750Z,10.90
2017-12-26T11:21:05.733Z,9.70
2017-12-26T11:22:05.721Z,11.90
2017-12-26T11:23:05.704Z,10.30
2017-12-26T11:24:05.692Z,10.20
2017-12-26T11:25:05.680Z,10.30
2017-12-26T11:26:05.661Z,11.60
2017-12-26T11:27:05.644Z,10.20
2017-12-26T11:28:05.630Z,10.00
2017-12-26T11:29:05.613Z,10.30
2017-12-26T11:30:05.598Z,10.20
2017-12-26T11:31:05.586Z,12.90
2017-12-26T11:32:05.572Z,10.30
2017-12-26T11:33:05.553Z,10.80
2017-12-26T11:34:05.547Z,10.40
2017-12-26T11:35:05.528Z,10.70
2017-12-26T11:36:05.518Z,10.90
2017-12-26T11:37:05.498Z,10.60
2017-12-26T11:38:05.480Z,10.00
2017-12-26T11:39:05.476Z,8.80
2017-12-26T11:40:05.455Z,11.00
2017-12-26T11:41:05.434Z,9.80
2017-12-26T11:42:05.422Z,11.50
2017-12-26T11:43:05.404Z,10.10
2017-12-26T11:44:05.444Z,10.00
2017-12-26T11:45:05.380Z,10.40
2017-12-26T11:46:05.369Z,9.90
2017-12-26T11:47:05.349Z,10.30
2017-12-26T11:48:05.352Z,8.80
2017-12-26T11:49:05.321Z,11.20
2017-12-26T11:50:05.303Z,9.50
2017-12-26T11:51:05.289Z,9.90
2017-12-26T11:52:05.274Z,9.40
2017-12-26T11:53:05.261Z,7.80
2017-12-26T11:54:05.250Z,9.10
2017-12-26T11:55:05.240Z,8.80
2017-12-26T11:56:05.214Z,8.80
2017-12-26T11:57:05.199Z,7.80
2017-12-26T11:58:05.187Z,8.70
2017-12-26T11:59:05.178Z,8.50
2017-12-26T12:00:05.164Z,7.90
2017-12-26T12:01:05.144Z,7.60
2017-12-26T12:02:05.131Z,8.70
2017-12-26T12:03:05.114Z,7.30
2017-12-26T12:04:05.105Z,7.50
2017-12-26T12:05:05.085Z,9.10
2017-12-26T12:06:05.070Z,7.50
2017-12-26T12:07:05.057Z,8.60
2017-12-26T12:08:05.044Z,8.70
2017-12-26T12:09:05.029Z,7.90
2017-12-26T12:10:05.015Z,8.00
2017-12-26T12:11:05.000Z,7.70
2017-12-26T12:12:04.983Z,8.40
2017-12-26T12:13:04.970Z,7.70
2017-12-26T12:14:04.957Z,8.00
2017-12-26T12:15:04.947Z,8.60
2017-12-26T12:16:04.931Z,8.10
2017-12-26T12:17:04.914Z,7.50
2017-12-26T12:18:04.904Z,7.60
2017-12-26T12:19:04.891Z,6.50
2017-12-26T12:20:04.874Z,6.50
2017-12-26T12:21:04.868Z,6.40
2017-12-26T12:22:04.856Z,7.50
2017-12-26T12:23:04.831Z,8.00
2017-12-26T12:24:04.825Z,7.50
2017-12-26T12:25:04.803Z,8.30
2017-12-26T12:26:04.788Z,6.50
2017-12-26T12:27:04.780Z,6.50
2017-12-26T12:28:04.765Z,7.00
2017-12-26T12:29:04.745Z,7.20
2017-12-26T12:30:04.733Z,8.10
2017-12-26T12:31:04.724Z,7.20
2017-12-26T12:32:04.704Z,6.10
2017-12-26T12:33:04.692Z,7.00
2017-12-26T12:34:04.677Z,7.20
2017-12-26T12:35:04.669Z,6.50
2017-12-26T12:36:04.651Z,8.10
2017-12-26T12:37:04.642Z,5.80
2017-12-26T12:38:04.623Z,8.40
2017-12-26T12:39:04.616Z,6.60
2017-12-26T12:40:04.597Z,6.20
2017-12-26T12:41:04.582Z,6.50
2017-12-26T12:42:04.567Z,6.90
2017-12-26T12:43:04.560Z,6.10
2017-12-26T12:44:04.545Z,5.70
2017-12-26T12:45:04.527Z,5.80
2017-12-26T12:46:04.514Z,6.10
2017-12-26T12:47:04.500Z,7.30
2017-12-26T12:48:04.494Z,8.10
2017-12-26T12:49:04.473Z,6.80
2017-12-26T12:50:04.467Z,6.30
2017-12-26T12:51:04.445Z,7.40
2017-12-26T12:52:04.430Z,5.90
2017-12-26T12:53:04.431Z,7.30
2017-12-26T12:54:04.404Z,6.00